sensor_id;sensor_type;location;lat;lon;timestamp;temperature;humidity
76172;DHT22;64929;51.178;4.138;2023-02-07T00:00:15;3.50;79.20
76172;DHT22;64929;51.178;4.138;2023-02-07T00:02:45;3.50;79.10
76172;DHT22;64929;51.178;4.138;2023-02-07T00:05:11;3.40;78.80
76172;DHT22;64929;51.178;4.138;2023-02-07T00:07:37;3.50;78.60
76172;DHT22;64929;51.178;4.138;2023-02-07T00:10:04;3.60;78.70
76172;DHT22;64929;51.178;4.138;2023-02-07T00:12:30;3.60;78.20
76172;DHT22;64929;51.178;4.138;2023-02-07T00:14:55;3.50;78.40
76172;DHT22;64929;51.178;4.138;2023-02-07T00:17:21;3.50;78.30
76172;DHT22;64929;51.178;4.138;2023-02-07T00:19:47;3.40;78.60
76172;DHT22;64929;51.178;4.138;2023-02-07T00:22:12;3.40;78.80
76172;DHT22;64929;51.178;4.138;2023-02-07T00:24:38;3.40;79.10
76172;DHT22;64929;51.178;4.138;2023-02-07T00:27:04;3.50;78.40
76172;DHT22;64929;51.178;4.138;2023-02-07T00:29:30;3.30;79.10
76172;DHT22;64929;51.178;4.138;2023-02-07T00:31:57;3.20;80.30
76172;DHT22;64929;51.178;4.138;2023-02-07T00:34:23;3.40;79.90
76172;DHT22;64929;51.178;4.138;2023-02-07T00:36:49;3.40;79.00
76172;DHT22;64929;51.178;4.138;2023-02-07T00:39:15;3.40;79.00
76172;DHT22;64929;51.178;4.138;2023-02-07T00:41:42;3.20;79.80
76172;DHT22;64929;51.178;4.138;2023-02-07T00:44:09;3.40;79.50
76172;DHT22;64929;51.178;4.138;2023-02-07T00:46:35;3.50;79.30
76172;DHT22;64929;51.178;4.138;2023-02-07T00:49:02;3.50;78.60
76172;DHT22;64929;51.178;4.138;2023-02-07T00:51:28;3.40;79.40
76172;DHT22;64929;51.178;4.138;2023-02-07T00:53:55;3.30;79.50
76172;DHT22;64929;51.178;4.138;2023-02-07T00:56:23;3.30;79.80
76172;DHT22;64929;51.178;4.138;2023-02-07T00:58:49;3.30;79.60
76172;DHT22;64929;51.178;4.138;2023-02-07T01:01:15;3.30;79.70
76172;DHT22;64929;51.178;4.138;2023-02-07T01:03:41;3.40;79.60
76172;DHT22;64929;51.178;4.138;2023-02-07T01:06:07;3.30;79.50
76172;DHT22;64929;51.178;4.138;2023-02-07T01:08:34;3.50;79.20
76172;DHT22;64929;51.178;4.138;2023-02-07T01:11:05;3.60;78.50
76172;DHT22;64929;51.178;4.138;2023-02-07T01:13:32;3.40;78.80
76172;DHT22;64929;51.178;4.138;2023-02-07T01:15:57;3.40;78.80
76172;DHT22;64929;51.178;4.138;2023-02-07T01:18:23;3.30;79.70
76172;DHT22;64929;51.178;4.138;2023-02-07T01:20:49;3.30;79.80
76172;DHT22;64929;51.178;4.138;2023-02-07T01:23:15;3.30;79.80
76172;DHT22;64929;51.178;4.138;2023-02-07T01:25:41;3.40;79.60
76172;DHT22;64929;51.178;4.138;2023-02-07T01:28:08;3.20;80.00
76172;DHT22;64929;51.178;4.138;2023-02-07T01:30:34;3.30;79.90
76172;DHT22;64929;51.178;4.138;2023-02-07T01:33:00;3.40;79.30
76172;DHT22;64929;51.178;4.138;2023-02-07T01:35:26;3.50;79.00
76172;DHT22;64929;51.178;4.138;2023-02-07T01:37:51;3.30;79.50
76172;DHT22;64929;51.178;4.138;2023-02-07T01:40:17;3.40;79.40
76172;DHT22;64929;51.178;4.138;2023-02-07T01:42:43;3.40;79.10
76172;DHT22;64929;51.178;4.138;2023-02-07T01:45:28;3.50;78.70
76172;DHT22;64929;51.178;4.138;2023-02-07T01:47:55;3.30;78.60
76172;DHT22;64929;51.178;4.138;2023-02-07T01:50:23;3.30;78.70
76172;DHT22;64929;51.178;4.138;2023-02-07T01:52:49;3.10;79.60
76172;DHT22;64929;51.178;4.138;2023-02-07T01:55:21;3.20;79.30
76172;DHT22;64929;51.178;4.138;2023-02-07T01:57:49;3.20;79.20
76172;DHT22;64929;51.178;4.138;2023-02-07T02:00:15;3.20;79.00
76172;DHT22;64929;51.178;4.138;2023-02-07T02:02:42;3.20;79.00
76172;DHT22;64929;51.178;4.138;2023-02-07T02:05:09;3.20;79.20
76172;DHT22;64929;51.178;4.138;2023-02-07T02:07:38;3.10;80.10
76172;DHT22;64929;51.178;4.138;2023-02-07T02:10:16;3.20;79.60
76172;DHT22;64929;51.178;4.138;2023-02-07T02:13:05;3.20;79.30
76172;DHT22;64929;51.178;4.138;2023-02-07T02:32:08;3.10;79.30
76172;DHT22;64929;51.178;4.138;2023-02-07T02:37:39;2.80;80.00
76172;DHT22;64929;51.178;4.138;2023-02-07T02:45:41;2.70;80.80
76172;DHT22;64929;51.178;4.138;2023-02-07T02:48:10;2.70;80.50
76172;DHT22;64929;51.178;4.138;2023-02-07T02:50:36;2.90;79.60
76172;DHT22;64929;51.178;4.138;2023-02-07T02:53:02;2.90;79.50
76172;DHT22;64929;51.178;4.138;2023-02-07T02:58:13;3.00;79.40
76172;DHT22;64929;51.178;4.138;2023-02-07T03:10:03;2.80;80.30
76172;DHT22;64929;51.178;4.138;2023-02-07T03:12:28;2.80;79.60
76172;DHT22;64929;51.178;4.138;2023-02-07T03:17:36;2.40;80.70
76172;DHT22;64929;51.178;4.138;2023-02-07T03:20:21;2.50;80.20
76172;DHT22;64929;51.178;4.138;2023-02-07T03:22:50;2.60;80.40
76172;DHT22;64929;51.178;4.138;2023-02-07T03:25:18;2.50;80.00
76172;DHT22;64929;51.178;4.138;2023-02-07T03:27:46;2.60;79.70
76172;DHT22;64929;51.178;4.138;2023-02-07T03:30:16;2.50;79.50
76172;DHT22;64929;51.178;4.138;2023-02-07T03:32:46;2.60;79.10
76172;DHT22;64929;51.178;4.138;2023-02-07T03:37:57;2.70;79.40
76172;DHT22;64929;51.178;4.138;2023-02-07T03:40:27;2.40;80.20
76172;DHT22;64929;51.178;4.138;2023-02-07T03:43:10;2.50;79.70
76172;DHT22;64929;51.178;4.138;2023-02-07T03:45:38;2.50;79.60
76172;DHT22;64929;51.178;4.138;2023-02-07T03:48:04;2.40;79.70
76172;DHT22;64929;51.178;4.138;2023-02-07T03:50:30;2.40;79.40
76172;DHT22;64929;51.178;4.138;2023-02-07T03:52:56;2.40;80.00
76172;DHT22;64929;51.178;4.138;2023-02-07T03:55:21;2.40;80.40
76172;DHT22;64929;51.178;4.138;2023-02-07T03:57:47;2.40;79.80
76172;DHT22;64929;51.178;4.138;2023-02-07T04:00:13;2.50;80.00
76172;DHT22;64929;51.178;4.138;2023-02-07T04:02:40;2.50;79.80
76172;DHT22;64929;51.178;4.138;2023-02-07T04:05:07;2.40;79.10
76172;DHT22;64929;51.178;4.138;2023-02-07T04:07:33;2.40;79.60
76172;DHT22;64929;51.178;4.138;2023-02-07T04:09:59;2.20;80.10
76172;DHT22;64929;51.178;4.138;2023-02-07T04:12:24;2.20;80.80
76172;DHT22;64929;51.178;4.138;2023-02-07T04:15:03;2.20;81.10
76172;DHT22;64929;51.178;4.138;2023-02-07T04:17:29;2.20;81.00
76172;DHT22;64929;51.178;4.138;2023-02-07T04:19:55;2.20;80.10
76172;DHT22;64929;51.178;4.138;2023-02-07T04:22:21;2.30;80.70
76172;DHT22;64929;51.178;4.138;2023-02-07T04:24:48;2.30;80.00
76172;DHT22;64929;51.178;4.138;2023-02-07T04:27:13;2.20;79.80
76172;DHT22;64929;51.178;4.138;2023-02-07T04:29:39;2.30;80.00
76172;DHT22;64929;51.178;4.138;2023-02-07T04:32:05;2.30;79.50
76172;DHT22;64929;51.178;4.138;2023-02-07T04:34:30;2.40;79.30
76172;DHT22;64929;51.178;4.138;2023-02-07T04:36:56;2.20;80.30
76172;DHT22;64929;51.178;4.138;2023-02-07T04:39:22;2.30;80.40
76172;DHT22;64929;51.178;4.138;2023-02-07T04:41:47;2.20;80.50
76172;DHT22;64929;51.178;4.138;2023-02-07T04:44:13;2.30;80.30
76172;DHT22;64929;51.178;4.138;2023-02-07T04:46:39;2.30;80.10
76172;DHT22;64929;51.178;4.138;2023-02-07T04:49:05;2.30;79.80
76172;DHT22;64929;51.178;4.138;2023-02-07T04:51:30;2.30;80.10
76172;DHT22;64929;51.178;4.138;2023-02-07T04:53:57;2.30;79.60
76172;DHT22;64929;51.178;4.138;2023-02-07T04:56:23;2.40;79.40
76172;DHT22;64929;51.178;4.138;2023-02-07T04:58:48;2.40;80.20
76172;DHT22;64929;51.178;4.138;2023-02-07T05:01:14;2.40;80.40
76172;DHT22;64929;51.178;4.138;2023-02-07T05:03:39;2.40;81.60
76172;DHT22;64929;51.178;4.138;2023-02-07T05:06:06;2.40;82.10
76172;DHT22;64929;51.178;4.138;2023-02-07T05:08:31;2.40;83.10
76172;DHT22;64929;51.178;4.138;2023-02-07T05:10:58;2.40;83.30
76172;DHT22;64929;51.178;4.138;2023-02-07T05:13:24;2.50;83.10
76172;DHT22;64929;51.178;4.138;2023-02-07T05:15:50;2.50;82.50
76172;DHT22;64929;51.178;4.138;2023-02-07T05:18:16;2.50;82.30
76172;DHT22;64929;51.178;4.138;2023-02-07T05:20:42;2.60;82.30
76172;DHT22;64929;51.178;4.138;2023-02-07T05:23:08;2.50;82.30
76172;DHT22;64929;51.178;4.138;2023-02-07T05:25:34;2.40;83.20
76172;DHT22;64929;51.178;4.138;2023-02-07T05:27:59;2.30;83.60
76172;DHT22;64929;51.178;4.138;2023-02-07T05:30:25;2.40;83.50
76172;DHT22;64929;51.178;4.138;2023-02-07T05:32:51;2.30;84.10
76172;DHT22;64929;51.178;4.138;2023-02-07T05:35:32;2.40;83.50
76172;DHT22;64929;51.178;4.138;2023-02-07T05:37:59;2.20;84.00
76172;DHT22;64929;51.178;4.138;2023-02-07T05:40:24;2.30;83.30
76172;DHT22;64929;51.178;4.138;2023-02-07T05:42:50;2.40;83.10
76172;DHT22;64929;51.178;4.138;2023-02-07T05:45:16;2.30;83.30
76172;DHT22;64929;51.178;4.138;2023-02-07T05:47:41;2.40;83.50
76172;DHT22;64929;51.178;4.138;2023-02-07T05:50:07;2.30;83.60
76172;DHT22;64929;51.178;4.138;2023-02-07T05:52:33;2.50;82.70
76172;DHT22;64929;51.178;4.138;2023-02-07T05:54:58;2.30;82.20
76172;DHT22;64929;51.178;4.138;2023-02-07T05:57:24;2.20;83.10
76172;DHT22;64929;51.178;4.138;2023-02-07T05:59:50;2.30;83.20
76172;DHT22;64929;51.178;4.138;2023-02-07T06:02:15;2.30;83.60
76172;DHT22;64929;51.178;4.138;2023-02-07T06:04:41;2.40;83.40
76172;DHT22;64929;51.178;4.138;2023-02-07T06:07:07;2.50;83.20
76172;DHT22;64929;51.178;4.138;2023-02-07T06:09:33;2.40;82.70
76172;DHT22;64929;51.178;4.138;2023-02-07T06:11:59;2.40;83.20
76172;DHT22;64929;51.178;4.138;2023-02-07T06:14:24;2.40;82.60
76172;DHT22;64929;51.178;4.138;2023-02-07T06:16:50;2.40;82.10
76172;DHT22;64929;51.178;4.138;2023-02-07T06:19:16;2.30;83.20
76172;DHT22;64929;51.178;4.138;2023-02-07T06:21:41;2.30;83.60
76172;DHT22;64929;51.178;4.138;2023-02-07T06:24:07;2.20;83.60
76172;DHT22;64929;51.178;4.138;2023-02-07T06:26:33;2.30;84.00
76172;DHT22;64929;51.178;4.138;2023-02-07T06:28:59;2.30;83.70
76172;DHT22;64929;51.178;4.138;2023-02-07T06:31:25;2.40;84.60
76172;DHT22;64929;51.178;4.138;2023-02-07T06:33:51;2.40;83.80
76172;DHT22;64929;51.178;4.138;2023-02-07T06:36:16;2.50;83.30
76172;DHT22;64929;51.178;4.138;2023-02-07T06:38:42;2.60;83.50
76172;DHT22;64929;51.178;4.138;2023-02-07T06:41:08;2.50;82.90
76172;DHT22;64929;51.178;4.138;2023-02-07T06:43:39;2.50;83.20
76172;DHT22;64929;51.178;4.138;2023-02-07T06:46:05;2.40;82.80
76172;DHT22;64929;51.178;4.138;2023-02-07T06:48:31;2.30;82.60
76172;DHT22;64929;51.178;4.138;2023-02-07T06:50:57;2.40;83.20
76172;DHT22;64929;51.178;4.138;2023-02-07T06:53:23;2.20;83.30
76172;DHT22;64929;51.178;4.138;2023-02-07T06:55:49;2.20;83.20
76172;DHT22;64929;51.178;4.138;2023-02-07T06:58:15;2.00;83.60
76172;DHT22;64929;51.178;4.138;2023-02-07T07:00:40;2.00;84.00
76172;DHT22;64929;51.178;4.138;2023-02-07T07:03:08;2.10;83.30
76172;DHT22;64929;51.178;4.138;2023-02-07T07:05:34;1.90;83.90
76172;DHT22;64929;51.178;4.138;2023-02-07T07:08:00;1.90;83.30
76172;DHT22;64929;51.178;4.138;2023-02-07T07:10:26;1.90;83.70
76172;DHT22;64929;51.178;4.138;2023-02-07T07:12:51;1.90;83.40
76172;DHT22;64929;51.178;4.138;2023-02-07T07:15:17;2.00;82.60
76172;DHT22;64929;51.178;4.138;2023-02-07T07:17:43;2.10;82.40
76172;DHT22;64929;51.178;4.138;2023-02-07T07:20:09;2.10;81.90
76172;DHT22;64929;51.178;4.138;2023-02-07T07:22:35;2.10;81.30
76172;DHT22;64929;51.178;4.138;2023-02-07T07:25:01;2.00;82.10
76172;DHT22;64929;51.178;4.138;2023-02-07T07:27:26;2.10;82.10
76172;DHT22;64929;51.178;4.138;2023-02-07T07:29:52;2.10;81.80
76172;DHT22;64929;51.178;4.138;2023-02-07T07:32:18;2.00;81.90
76172;DHT22;64929;51.178;4.138;2023-02-07T07:34:43;1.90;82.30
76172;DHT22;64929;51.178;4.138;2023-02-07T07:37:11;1.80;82.90
76172;DHT22;64929;51.178;4.138;2023-02-07T07:39:37;2.00;82.50
76172;DHT22;64929;51.178;4.138;2023-02-07T07:42:02;2.10;81.80
76172;DHT22;64929;51.178;4.138;2023-02-07T07:44:28;2.20;80.70
76172;DHT22;64929;51.178;4.138;2023-02-07T07:46:54;2.00;81.20
76172;DHT22;64929;51.178;4.138;2023-02-07T07:49:19;2.10;81.20
76172;DHT22;64929;51.178;4.138;2023-02-07T07:51:45;2.00;81.10
76172;DHT22;64929;51.178;4.138;2023-02-07T07:54:12;2.00;81.00
76172;DHT22;64929;51.178;4.138;2023-02-07T07:56:38;1.90;81.30
76172;DHT22;64929;51.178;4.138;2023-02-07T07:59:04;1.70;82.20
76172;DHT22;64929;51.178;4.138;2023-02-07T08:01:29;1.70;82.50
76172;DHT22;64929;51.178;4.138;2023-02-07T08:03:55;1.80;82.30
76172;DHT22;64929;51.178;4.138;2023-02-07T08:06:21;1.80;81.80
76172;DHT22;64929;51.178;4.138;2023-02-07T08:08:47;1.80;81.50
76172;DHT22;64929;51.178;4.138;2023-02-07T08:11:12;1.80;82.00
76172;DHT22;64929;51.178;4.138;2023-02-07T08:13:38;1.90;81.80
76172;DHT22;64929;51.178;4.138;2023-02-07T08:16:04;1.90;82.40
76172;DHT22;64929;51.178;4.138;2023-02-07T08:18:33;2.00;82.00
76172;DHT22;64929;51.178;4.138;2023-02-07T08:20:59;2.10;82.00
76172;DHT22;64929;51.178;4.138;2023-02-07T08:23:24;2.10;81.80
76172;DHT22;64929;51.178;4.138;2023-02-07T08:25:50;2.10;82.20
76172;DHT22;64929;51.178;4.138;2023-02-07T08:28:16;2.20;82.40
76172;DHT22;64929;51.178;4.138;2023-02-07T08:30:43;2.20;82.50
76172;DHT22;64929;51.178;4.138;2023-02-07T08:33:12;2.20;82.70
76172;DHT22;64929;51.178;4.138;2023-02-07T08:35:38;2.30;82.80
76172;DHT22;64929;51.178;4.138;2023-02-07T08:38:04;2.30;82.90
76172;DHT22;64929;51.178;4.138;2023-02-07T08:40:29;2.30;83.00
76172;DHT22;64929;51.178;4.138;2023-02-07T08:42:55;2.30;82.60
76172;DHT22;64929;51.178;4.138;2023-02-07T08:45:21;2.50;82.50
76172;DHT22;64929;51.178;4.138;2023-02-07T08:47:47;2.40;82.70
76172;DHT22;64929;51.178;4.138;2023-02-07T08:50:15;2.40;82.70
76172;DHT22;64929;51.178;4.138;2023-02-07T08:52:41;2.50;83.30
76172;DHT22;64929;51.178;4.138;2023-02-07T08:55:08;2.60;82.90
76172;DHT22;64929;51.178;4.138;2023-02-07T08:57:33;2.60;82.80
76172;DHT22;64929;51.178;4.138;2023-02-07T08:59:59;2.70;82.30
76172;DHT22;64929;51.178;4.138;2023-02-07T09:02:26;2.70;82.10
76172;DHT22;64929;51.178;4.138;2023-02-07T09:04:52;2.60;82.80
76172;DHT22;64929;51.178;4.138;2023-02-07T09:07:18;2.70;82.50
76172;DHT22;64929;51.178;4.138;2023-02-07T09:09:44;2.70;82.10
76172;DHT22;64929;51.178;4.138;2023-02-07T09:12:10;2.70;82.80
76172;DHT22;64929;51.178;4.138;2023-02-07T09:14:36;2.70;82.80
76172;DHT22;64929;51.178;4.138;2023-02-07T09:17:03;2.70;82.80
76172;DHT22;64929;51.178;4.138;2023-02-07T09:19:28;2.60;83.30
76172;DHT22;64929;51.178;4.138;2023-02-07T09:21:55;2.70;83.10
76172;DHT22;64929;51.178;4.138;2023-02-07T09:24:21;2.80;83.20
76172;DHT22;64929;51.178;4.138;2023-02-07T09:26:48;2.90;82.70
76172;DHT22;64929;51.178;4.138;2023-02-07T09:29:14;3.00;82.10
76172;DHT22;64929;51.178;4.138;2023-02-07T09:31:40;3.10;81.90
76172;DHT22;64929;51.178;4.138;2023-02-07T09:34:06;3.00;82.00
76172;DHT22;64929;51.178;4.138;2023-02-07T09:36:32;3.20;81.50
76172;DHT22;64929;51.178;4.138;2023-02-07T09:38:58;3.30;81.40
76172;DHT22;64929;51.178;4.138;2023-02-07T09:41:36;3.40;81.30
76172;DHT22;64929;51.178;4.138;2023-02-07T09:46:43;3.20;80.70
76172;DHT22;64929;51.178;4.138;2023-02-07T09:51:47;3.10;80.10
76172;DHT22;64929;51.178;4.138;2023-02-07T09:54:27;2.90;81.00
76172;DHT22;64929;51.178;4.138;2023-02-07T09:56:58;3.00;81.10
76172;DHT22;64929;51.178;4.138;2023-02-07T10:02:30;3.20;81.10
76172;DHT22;64929;51.178;4.138;2023-02-07T10:05:02;3.20;80.50
76172;DHT22;64929;51.178;4.138;2023-02-07T10:07:28;3.40;80.50
76172;DHT22;64929;51.178;4.138;2023-02-07T10:09:55;3.50;80.80
76172;DHT22;64929;51.178;4.138;2023-02-07T10:18:31;3.90;78.70
76172;DHT22;64929;51.178;4.138;2023-02-07T10:26:48;4.20;76.40
76172;DHT22;64929;51.178;4.138;2023-02-07T10:29:32;4.20;76.40
76172;DHT22;64929;51.178;4.138;2023-02-07T10:32:23;4.10;76.50
76172;DHT22;64929;51.178;4.138;2023-02-07T10:34:54;3.80;77.10
76172;DHT22;64929;51.178;4.138;2023-02-07T10:37:23;3.80;78.00
76172;DHT22;64929;51.178;4.138;2023-02-07T10:40:20;4.00;77.90
76172;DHT22;64929;51.178;4.138;2023-02-07T10:42:53;4.10;77.00
76172;DHT22;64929;51.178;4.138;2023-02-07T10:45:20;4.20;76.20
76172;DHT22;64929;51.178;4.138;2023-02-07T10:47:46;4.10;77.00
76172;DHT22;64929;51.178;4.138;2023-02-07T10:50:16;4.20;76.30
76172;DHT22;64929;51.178;4.138;2023-02-07T10:52:53;4.10;75.00
76172;DHT22;64929;51.178;4.138;2023-02-07T10:55:42;4.20;76.20
76172;DHT22;64929;51.178;4.138;2023-02-07T10:58:21;4.60;74.00
76172;DHT22;64929;51.178;4.138;2023-02-07T11:00:50;4.80;73.00
76172;DHT22;64929;51.178;4.138;2023-02-07T11:03:25;5.10;73.30
76172;DHT22;64929;51.178;4.138;2023-02-07T11:06:01;5.70;72.30
76172;DHT22;64929;51.178;4.138;2023-02-07T11:08:33;6.00;70.10
76172;DHT22;64929;51.178;4.138;2023-02-07T11:13:48;6.90;66.70
76172;DHT22;64929;51.178;4.138;2023-02-07T11:16:16;7.10;64.50
76172;DHT22;64929;51.178;4.138;2023-02-07T11:24:07;7.60;62.90
76172;DHT22;64929;51.178;4.138;2023-02-07T11:29:23;8.80;60.30
76172;DHT22;64929;51.178;4.138;2023-02-07T11:31:51;8.70;58.30
76172;DHT22;64929;51.178;4.138;2023-02-07T11:34:27;9.10;57.30
76172;DHT22;64929;51.178;4.138;2023-02-07T11:36:55;9.90;55.30
76172;DHT22;64929;51.178;4.138;2023-02-07T11:39:32;10.60;52.70
76172;DHT22;64929;51.178;4.138;2023-02-07T11:42:00;11.20;50.40
76172;DHT22;64929;51.178;4.138;2023-02-07T11:44:30;11.60;49.40
76172;DHT22;64929;51.178;4.138;2023-02-07T11:46:57;12.00;47.60
76172;DHT22;64929;51.178;4.138;2023-02-07T11:49:31;11.60;48.80
76172;DHT22;64929;51.178;4.138;2023-02-07T11:52:00;11.40;49.60
76172;DHT22;64929;51.178;4.138;2023-02-07T11:54:28;11.80;48.20
76172;DHT22;64929;51.178;4.138;2023-02-07T11:57:24;12.50;46.50
76172;DHT22;64929;51.178;4.138;2023-02-07T12:02:31;13.10;44.50
76172;DHT22;64929;51.178;4.138;2023-02-07T12:05:21;13.00;44.30
76172;DHT22;64929;51.178;4.138;2023-02-07T12:07:50;14.70;42.20
76172;DHT22;64929;51.178;4.138;2023-02-07T12:10:26;16.10;36.20
76172;DHT22;64929;51.178;4.138;2023-02-07T12:18:33;21.30;30.50
76172;DHT22;64929;51.178;4.138;2023-02-07T12:29:39;16.90;34.20
76172;DHT22;64929;51.178;4.138;2023-02-07T12:37:24;15.80;38.80
76172;DHT22;64929;51.178;4.138;2023-02-07T12:42:50;13.40;45.90
76172;DHT22;64929;51.178;4.138;2023-02-07T12:54:17;14.50;44.30
76172;DHT22;64929;51.178;4.138;2023-02-07T12:57:03;15.00;44.30
76172;DHT22;64929;51.178;4.138;2023-02-07T13:02:56;15.70;41.30
76172;DHT22;64929;51.178;4.138;2023-02-07T13:16:13;12.00;49.20
76172;DHT22;64929;51.178;4.138;2023-02-07T13:18:55;10.90;53.00
76172;DHT22;64929;51.178;4.138;2023-02-07T13:23:50;9.40;59.30
76172;DHT22;64929;51.178;4.138;2023-02-07T13:26:20;9.00;61.30
76172;DHT22;64929;51.178;4.138;2023-02-07T13:28:55;8.70;61.60
76172;DHT22;64929;51.178;4.138;2023-02-07T13:34:00;8.20;63.50
76172;DHT22;64929;51.178;4.138;2023-02-07T13:36:42;8.30;62.90
76172;DHT22;64929;51.178;4.138;2023-02-07T13:50:45;8.30;63.40
76172;DHT22;64929;51.178;4.138;2023-02-07T13:57:48;7.70;66.10
76172;DHT22;64929;51.178;4.138;2023-02-07T14:00:59;7.90;65.90
76172;DHT22;64929;51.178;4.138;2023-02-07T14:03:33;7.80;65.80
76172;DHT22;64929;51.178;4.138;2023-02-07T14:06:23;7.60;66.00
76172;DHT22;64929;51.178;4.138;2023-02-07T14:08:56;7.50;66.80
76172;DHT22;64929;51.178;4.138;2023-02-07T14:11:48;7.40;67.00
76172;DHT22;64929;51.178;4.138;2023-02-07T14:14:37;7.30;68.10
76172;DHT22;64929;51.178;4.138;2023-02-07T14:17:07;7.30;68.90
76172;DHT22;64929;51.178;4.138;2023-02-07T14:32:41;7.40;66.90
76172;DHT22;64929;51.178;4.138;2023-02-07T14:40:51;7.40;67.00
76172;DHT22;64929;51.178;4.138;2023-02-07T14:43:40;7.50;67.00
76172;DHT22;64929;51.178;4.138;2023-02-07T14:54:17;7.30;67.30
76172;DHT22;64929;51.178;4.138;2023-02-07T14:56:59;7.20;67.70
76172;DHT22;64929;51.178;4.138;2023-02-07T14:59:41;7.40;67.10
76172;DHT22;64929;51.178;4.138;2023-02-07T15:02:31;7.50;66.40
76172;DHT22;64929;51.178;4.138;2023-02-07T15:04:59;7.40;66.80
76172;DHT22;64929;51.178;4.138;2023-02-07T15:07:39;7.50;66.90
76172;DHT22;64929;51.178;4.138;2023-02-07T15:10:26;7.40;66.70
76172;DHT22;64929;51.178;4.138;2023-02-07T15:12:53;7.40;67.30
76172;DHT22;64929;51.178;4.138;2023-02-07T15:15:31;7.20;67.80
76172;DHT22;64929;51.178;4.138;2023-02-07T15:18:00;7.30;67.90
76172;DHT22;64929;51.178;4.138;2023-02-07T15:20:33;7.20;67.90
76172;DHT22;64929;51.178;4.138;2023-02-07T15:23:02;7.10;68.20
76172;DHT22;64929;51.178;4.138;2023-02-07T15:25:32;7.20;68.30
76172;DHT22;64929;51.178;4.138;2023-02-07T15:31:04;7.60;67.50
76172;DHT22;64929;51.178;4.138;2023-02-07T15:36:28;8.20;65.00
76172;DHT22;64929;51.178;4.138;2023-02-07T15:38:54;8.70;64.40
76172;DHT22;64929;51.178;4.138;2023-02-07T15:41:20;9.10;62.70
76172;DHT22;64929;51.178;4.138;2023-02-07T15:44:22;9.30;61.80
76172;DHT22;64929;51.178;4.138;2023-02-07T15:47:05;9.30;61.40
76172;DHT22;64929;51.178;4.138;2023-02-07T15:49:36;8.90;62.40
76172;DHT22;64929;51.178;4.138;2023-02-07T15:52:12;8.50;63.70
76172;DHT22;64929;51.178;4.138;2023-02-07T15:54:47;8.30;64.80
76172;DHT22;64929;51.178;4.138;2023-02-07T15:57:26;8.10;65.20
76172;DHT22;64929;51.178;4.138;2023-02-07T15:59:54;7.70;66.80
76172;DHT22;64929;51.178;4.138;2023-02-07T16:02:27;7.60;67.60
76172;DHT22;64929;51.178;4.138;2023-02-07T16:05:05;7.60;68.00
76172;DHT22;64929;51.178;4.138;2023-02-07T16:07:31;7.40;68.30
76172;DHT22;64929;51.178;4.138;2023-02-07T16:12:51;7.30;68.90
76172;DHT22;64929;51.178;4.138;2023-02-07T16:17:53;7.10;69.70
76172;DHT22;64929;51.178;4.138;2023-02-07T16:20:19;7.00;69.90
76172;DHT22;64929;51.178;4.138;2023-02-07T16:22:45;6.90;70.20
76172;DHT22;64929;51.178;4.138;2023-02-07T16:25:23;6.70;70.70
76172;DHT22;64929;51.178;4.138;2023-02-07T16:27:51;6.70;71.30
76172;DHT22;64929;51.178;4.138;2023-02-07T16:30:29;6.70;71.30
76172;DHT22;64929;51.178;4.138;2023-02-07T16:32:54;6.60;71.40
76172;DHT22;64929;51.178;4.138;2023-02-07T16:35:25;6.60;71.30
76172;DHT22;64929;51.178;4.138;2023-02-07T16:37:52;6.50;71.80
76172;DHT22;64929;51.178;4.138;2023-02-07T16:40:19;6.40;72.10
76172;DHT22;64929;51.178;4.138;2023-02-07T16:42:47;6.40;72.20
76172;DHT22;64929;51.178;4.138;2023-02-07T16:45:23;6.30;72.40
76172;DHT22;64929;51.178;4.138;2023-02-07T16:47:49;6.10;72.50
76172;DHT22;64929;51.178;4.138;2023-02-07T16:50:22;6.10;72.70
76172;DHT22;64929;51.178;4.138;2023-02-07T16:52:50;6.10;73.00
76172;DHT22;64929;51.178;4.138;2023-02-07T16:55:18;6.10;72.70
76172;DHT22;64929;51.178;4.138;2023-02-07T16:57:46;6.00;72.70
76172;DHT22;64929;51.178;4.138;2023-02-07T17:00:15;6.00;72.60
76172;DHT22;64929;51.178;4.138;2023-02-07T17:02:41;5.90;73.00
76172;DHT22;64929;51.178;4.138;2023-02-07T17:05:07;5.80;73.20
76172;DHT22;64929;51.178;4.138;2023-02-07T17:07:33;5.60;73.60
76172;DHT22;64929;51.178;4.138;2023-02-07T17:09:59;5.60;73.60
76172;DHT22;64929;51.178;4.138;2023-02-07T17:12:25;5.50;74.20
76172;DHT22;64929;51.178;4.138;2023-02-07T17:14:51;5.30;74.70
76172;DHT22;64929;51.178;4.138;2023-02-07T17:17:17;5.10;74.80
76172;DHT22;64929;51.178;4.138;2023-02-07T17:19:43;5.00;75.40
76172;DHT22;64929;51.178;4.138;2023-02-07T17:22:12;5.00;75.20
76172;DHT22;64929;51.178;4.138;2023-02-07T17:24:38;5.00;75.10
76172;DHT22;64929;51.178;4.138;2023-02-07T17:27:03;5.00;74.80
76172;DHT22;64929;51.178;4.138;2023-02-07T17:29:29;5.00;75.20
76172;DHT22;64929;51.178;4.138;2023-02-07T17:31:55;5.00;75.50
76172;DHT22;64929;51.178;4.138;2023-02-07T17:34:20;4.90;75.80
76172;DHT22;64929;51.178;4.138;2023-02-07T17:36:47;4.80;75.60
76172;DHT22;64929;51.178;4.138;2023-02-07T17:39:15;4.80;76.30
76172;DHT22;64929;51.178;4.138;2023-02-07T17:41:41;4.70;76.30
76172;DHT22;64929;51.178;4.138;2023-02-07T17:44:07;4.70;76.10
76172;DHT22;64929;51.178;4.138;2023-02-07T17:46:32;4.60;76.20
76172;DHT22;64929;51.178;4.138;2023-02-07T17:48:58;4.60;76.40
76172;DHT22;64929;51.178;4.138;2023-02-07T17:51:26;4.60;76.30
76172;DHT22;64929;51.178;4.138;2023-02-07T17:53:53;4.50;76.30
76172;DHT22;64929;51.178;4.138;2023-02-07T17:56:22;4.30;76.80
76172;DHT22;64929;51.178;4.138;2023-02-07T17:58:49;4.30;76.80
76172;DHT22;64929;51.178;4.138;2023-02-07T18:01:15;4.30;76.30
76172;DHT22;64929;51.178;4.138;2023-02-07T18:03:45;4.30;76.40
76172;DHT22;64929;51.178;4.138;2023-02-07T18:06:15;4.20;76.60
76172;DHT22;64929;51.178;4.138;2023-02-07T18:08:42;4.20;76.20
76172;DHT22;64929;51.178;4.138;2023-02-07T18:11:08;4.10;76.80
76172;DHT22;64929;51.178;4.138;2023-02-07T18:13:37;4.10;77.10
76172;DHT22;64929;51.178;4.138;2023-02-07T18:16:03;4.10;76.70
76172;DHT22;64929;51.178;4.138;2023-02-07T18:18:29;4.00;76.50
76172;DHT22;64929;51.178;4.138;2023-02-07T18:20:55;4.10;76.30
76172;DHT22;64929;51.178;4.138;2023-02-07T18:23:21;4.00;76.10
76172;DHT22;64929;51.178;4.138;2023-02-07T18:25:48;3.80;77.00
76172;DHT22;64929;51.178;4.138;2023-02-07T18:28:15;3.70;76.80
76172;DHT22;64929;51.178;4.138;2023-02-07T18:30:40;3.70;77.20
76172;DHT22;64929;51.178;4.138;2023-02-07T18:33:06;3.90;76.60
76172;DHT22;64929;51.178;4.138;2023-02-07T18:35:32;3.90;76.40
76172;DHT22;64929;51.178;4.138;2023-02-07T18:37:59;3.90;76.20
76172;DHT22;64929;51.178;4.138;2023-02-07T18:40:24;3.80;76.30
76172;DHT22;64929;51.178;4.138;2023-02-07T18:42:50;3.60;76.80
76172;DHT22;64929;51.178;4.138;2023-02-07T18:45:16;3.50;77.20
76172;DHT22;64929;51.178;4.138;2023-02-07T18:47:42;3.50;76.90
76172;DHT22;64929;51.178;4.138;2023-02-07T18:50:10;3.50;77.20
76172;DHT22;64929;51.178;4.138;2023-02-07T18:52:36;3.50;76.60
76172;DHT22;64929;51.178;4.138;2023-02-07T18:55:02;3.50;76.50